sensor_id;sensor_type;location;lat;lon;timestamp;pressure;altitude;pressure_sealevel;temperature;humidity
21102;BME280;10709;49.006;12.100;2023-09-08T00:02:27;48777.38;;;-146.00;70.46
21102;BME280;10709;49.006;12.100;2023-09-08T00:04:54;48765.63;;;-146.00;70.48
21102;BME280;10709;49.006;12.100;2023-09-08T00:07:21;48759.75;;;-146.00;70.24
21102;BME280;10709;49.006;12.100;2023-09-08T00:09:48;48757.78;;;-146.00;70.45
21102;BME280;10709;49.006;12.100;2023-09-08T00:12:15;48759.75;;;-146.00;70.63
21102;BME280;10709;49.006;12.100;2023-09-08T00:14:42;48773.47;;;-146.00;70.66
21102;BME280;10709;49.006;12.100;2023-09-08T00:17:08;48738.19;;;-146.00;70.57
21102;BME280;10709;49.006;12.100;2023-09-08T00:19:35;48730.38;;;-146.00;70.87
21102;BME280;10709;49.006;12.100;2023-09-08T00:22:03;48753.88;;;-146.00;70.72
21102;BME280;10709;49.006;12.100;2023-09-08T00:24:32;48755.84;;;-146.00;70.88
21102;BME280;10709;49.006;12.100;2023-09-08T00:26:59;48738.19;;;-146.00;70.89
21102;BME280;10709;49.006;12.100;2023-09-08T00:29:26;48736.25;;;-146.00;70.87
21102;BME280;10709;49.006;12.100;2023-09-08T00:31:53;48765.63;;;-146.00;70.96
21102;BME280;10709;49.006;12.100;2023-09-08T00:34:19;48785.22;;;-146.00;71.25
21102;BME280;10709;49.006;12.100;2023-09-08T00:36:46;48759.75;;;-146.00;70.88
21102;BME280;10709;49.006;12.100;2023-09-08T00:39:12;48753.88;;;-146.00;71.12
21102;BME280;10709;49.006;12.100;2023-09-08T00:41:39;48742.13;;;-146.00;71.17
21102;BME280;10709;49.006;12.100;2023-09-08T00:44:05;48746.03;;;-146.00;70.96
21102;BME280;10709;49.006;12.100;2023-09-08T00:46:35;48769.53;;;-146.00;71.12
21102;BME280;10709;49.006;12.100;2023-09-08T00:49:02;48753.88;;;-146.00;71.01
21102;BME280;10709;49.006;12.100;2023-09-08T00:51:28;48746.03;;;-146.00;71.00
21102;BME280;10709;49.006;12.100;2023-09-08T00:53:55;48773.47;;;-146.00;71.36
21102;BME280;10709;49.006;12.100;2023-09-08T00:56:22;48773.47;;;-146.00;70.94
21102;BME280;10709;49.006;12.100;2023-09-08T00:58:49;48728.41;;;-146.00;71.27
21102;BME280;10709;49.006;12.100;2023-09-08T01:01:16;48769.53;;;-146.00;71.17
21102;BME280;10709;49.006;12.100;2023-09-08T01:03:44;48738.19;;;-146.00;71.21
21102;BME280;10709;49.006;12.100;2023-09-08T01:06:11;48753.88;;;-146.00;71.18
21102;BME280;10709;49.006;12.100;2023-09-08T01:08:38;48730.38;;;-146.00;71.07
21102;BME280;10709;49.006;12.100;2023-09-08T01:11:05;48738.19;;;-146.00;71.50
21102;BME280;10709;49.006;12.100;2023-09-08T01:13:33;48777.38;;;-146.00;71.20
21102;BME280;10709;49.006;12.100;2023-09-08T01:16:00;48761.72;;;-146.00;71.18
21102;BME280;10709;49.006;12.100;2023-09-08T01:18:27;48773.47;;;-146.00;71.49
21102;BME280;10709;49.006;12.100;2023-09-08T01:21:30;48730.38;;;-146.00;71.60
21102;BME280;10709;49.006;12.100;2023-09-08T01:24:17;48746.03;;;-146.00;71.76
21102;BME280;10709;49.006;12.100;2023-09-08T01:26:45;48746.03;;;-146.00;71.40
21102;BME280;10709;49.006;12.100;2023-09-08T01:29:13;48746.03;;;-146.00;71.43
21102;BME280;10709;49.006;12.100;2023-09-08T01:31:39;48793.06;;;-146.00;71.63
21102;BME280;10709;49.006;12.100;2023-09-08T01:34:07;48744.06;;;-146.00;71.58
21102;BME280;10709;49.006;12.100;2023-09-08T01:36:34;48746.03;;;-146.00;71.69
21102;BME280;10709;49.006;12.100;2023-09-08T01:39:02;48742.13;;;-146.00;71.61
21102;BME280;10709;49.006;12.100;2023-09-08T01:41:29;48734.28;;;-146.00;71.40
21102;BME280;10709;49.006;12.100;2023-09-08T01:43:59;48773.47;;;-146.00;71.36
21102;BME280;10709;49.006;12.100;2023-09-08T01:46:25;48765.63;;;-146.00;71.40
21102;BME280;10709;49.006;12.100;2023-09-08T01:48:52;48765.63;;;-146.00;71.78
21102;BME280;10709;49.006;12.100;2023-09-08T01:51:18;48740.16;;;-146.00;71.48
21102;BME280;10709;49.006;12.100;2023-09-08T01:53:45;48734.28;;;-146.00;71.42
21102;BME280;10709;49.006;12.100;2023-09-08T01:56:11;48742.13;;;-146.00;71.47
21102;BME280;10709;49.006;12.100;2023-09-08T01:58:38;48726.44;;;-146.00;71.38
21102;BME280;10709;49.006;12.100;2023-09-08T02:01:04;48726.44;;;-146.00;71.60
21102;BME280;10709;49.006;12.100;2023-09-08T02:03:33;48753.88;;;-146.00;71.50
21102;BME280;10709;49.006;12.100;2023-09-08T02:06:00;48757.78;;;-146.00;71.52
21102;BME280;10709;49.006;12.100;2023-09-08T02:08:26;48753.88;;;-146.00;71.64
21102;BME280;10709;49.006;12.100;2023-09-08T02:10:53;48730.38;;;-146.00;71.70
21102;BME280;10709;49.006;12.100;2023-09-08T02:13:19;48722.53;;;-146.00;71.70
21102;BME280;10709;49.006;12.100;2023-09-08T02:15:46;48732.31;;;-146.00;71.62
21102;BME280;10709;49.006;12.100;2023-09-08T02:18:14;48730.38;;;-146.00;71.64
21102;BME280;10709;49.006;12.100;2023-09-08T02:20:41;48746.03;;;-146.00;71.62
21102;BME280;10709;49.006;12.100;2023-09-08T02:23:08;48734.28;;;-146.00;71.75
21102;BME280;10709;49.006;12.100;2023-09-08T02:25:34;48753.88;;;-146.00;71.70
21102;BME280;10709;49.006;12.100;2023-09-08T02:28:01;48746.03;;;-146.00;71.73
21102;BME280;10709;49.006;12.100;2023-09-08T02:30:28;48746.03;;;-146.00;72.20
21102;BME280;10709;49.006;12.100;2023-09-08T02:32:54;48746.03;;;-146.00;72.14
21102;BME280;10709;49.006;12.100;2023-09-08T02:35:23;48734.28;;;-146.00;72.21
21102;BME280;10709;49.006;12.100;2023-09-08T02:37:50;48761.72;;;-146.00;72.42
21102;BME280;10709;49.006;12.100;2023-09-08T02:40:16;48753.88;;;-146.00;72.48
21102;BME280;10709;49.006;12.100;2023-09-08T02:42:43;48730.38;;;-146.00;72.30
21102;BME280;10709;49.006;12.100;2023-09-08T02:45:10;48730.38;;;-146.00;72.22
21102;BME280;10709;49.006;12.100;2023-09-08T02:47:36;48746.03;;;-146.00;72.31
21102;BME280;10709;49.006;12.100;2023-09-08T02:50:03;48771.50;;;-146.00;72.61
21102;BME280;10709;49.006;12.100;2023-09-08T02:52:31;48730.38;;;-146.00;72.54
21102;BME280;10709;49.006;12.100;2023-09-08T02:54:57;48738.19;;;-146.00;72.96
21102;BME280;10709;49.006;12.100;2023-09-08T02:57:24;48742.13;;;-146.00;72.60
21102;BME280;10709;49.006;12.100;2023-09-08T02:59:50;48753.88;;;-146.00;72.59
21102;BME280;10709;49.006;12.100;2023-09-08T03:02:17;48738.19;;;-146.00;72.54
21102;BME280;10709;49.006;12.100;2023-09-08T03:04:44;48761.72;;;-146.00;72.81
21102;BME280;10709;49.006;12.100;2023-09-08T03:07:10;48746.03;;;-146.00;72.80
21102;BME280;10709;49.006;12.100;2023-09-08T03:09:37;48746.03;;;-146.00;73.11
21102;BME280;10709;49.006;12.100;2023-09-08T03:12:04;48726.44;;;-146.00;73.21
21102;BME280;10709;49.006;12.100;2023-09-08T03:14:30;48730.38;;;-146.00;72.96
21102;BME280;10709;49.006;12.100;2023-09-08T03:16:57;48702.94;;;-146.00;73.46
21102;BME280;10709;49.006;12.100;2023-09-08T03:19:23;48730.38;;;-146.00;73.28
21102;BME280;10709;49.006;12.100;2023-09-08T03:21:50;48718.59;;;-146.00;73.27
21102;BME280;10709;49.006;12.100;2023-09-08T03:24:17;48734.28;;;-146.00;73.32
21102;BME280;10709;49.006;12.100;2023-09-08T03:26:43;48718.59;;;-146.00;73.37
21102;BME280;10709;49.006;12.100;2023-09-08T03:29:10;48738.19;;;-146.00;73.90
21102;BME280;10709;49.006;12.100;2023-09-08T03:31:36;48732.31;;;-146.00;73.81
21102;BME280;10709;49.006;12.100;2023-09-08T03:34:03;48738.19;;;-146.00;73.64
21102;BME280;10709;49.006;12.100;2023-09-08T03:36:31;48746.03;;;-146.00;73.40
21102;BME280;10709;49.006;12.100;2023-09-08T03:39:03;48755.84;;;-146.00;73.76
21102;BME280;10709;49.006;12.100;2023-09-08T03:41:29;48738.19;;;-146.00;73.75
21102;BME280;10709;49.006;12.100;2023-09-08T03:43:56;48720.56;;;-146.00;73.67
21102;BME280;10709;49.006;12.100;2023-09-08T03:46:24;48746.03;;;-146.00;73.96
21102;BME280;10709;49.006;12.100;2023-09-08T03:48:51;48746.03;;;-146.00;73.65
21102;BME280;10709;49.006;12.100;2023-09-08T03:51:21;48742.13;;;-146.00;73.53
21102;BME280;10709;49.006;12.100;2023-09-08T03:53:47;48755.84;;;-146.00;73.70
21102;BME280;10709;49.006;12.100;2023-09-08T03:56:14;48722.53;;;-146.00;73.45
21102;BME280;10709;49.006;12.100;2023-09-08T03:58:40;48744.06;;;-146.00;73.82
21102;BME280;10709;49.006;12.100;2023-09-08T04:01:07;48730.38;;;-146.00;73.91
21102;BME280;10709;49.006;12.100;2023-09-08T04:03:33;48734.28;;;-146.00;74.06
21102;BME280;10709;49.006;12.100;2023-09-08T04:06:00;48726.44;;;-146.00;74.26
21102;BME280;10709;49.006;12.100;2023-09-08T04:08:28;48716.66;;;-146.00;73.88
21102;BME280;10709;49.006;12.100;2023-09-08T04:10:56;48753.88;;;-146.00;73.92
21102;BME280;10709;49.006;12.100;2023-09-08T04:13:23;48757.78;;;-146.00;73.91
21102;BME280;10709;49.006;12.100;2023-09-08T04:15:49;48761.72;;;-146.00;74.16
21102;BME280;10709;49.006;12.100;2023-09-08T04:18:16;48740.16;;;-146.00;74.13
21102;BME280;10709;49.006;12.100;2023-09-08T04:20:43;48765.63;;;-146.00;74.07
21102;BME280;10709;49.006;12.100;2023-09-08T04:23:09;48724.50;;;-146.00;73.74
21102;BME280;10709;49.006;12.100;2023-09-08T04:25:37;48740.16;;;-146.00;74.40
21102;BME280;10709;49.006;12.100;2023-09-08T04:28:04;48746.03;;;-146.00;74.08
21102;BME280;10709;49.006;12.100;2023-09-08T04:30:31;48738.19;;;-146.00;74.25
21102;BME280;10709;49.006;12.100;2023-09-08T04:32:57;48728.41;;;-146.00;74.18
21102;BME280;10709;49.006;12.100;2023-09-08T04:35:24;48726.44;;;-146.00;74.36
21102;BME280;10709;49.006;12.100;2023-09-08T04:37:51;48714.69;;;-146.00;74.29
21102;BME280;10709;49.006;12.100;2023-09-08T04:40:17;48753.88;;;-146.00;74.29
21102;BME280;10709;49.006;12.100;2023-09-08T04:42:44;48753.88;;;-146.00;74.49
21102;BME280;10709;49.006;12.100;2023-09-08T04:45:10;48730.38;;;-146.00;74.63
21102;BME280;10709;49.006;12.100;2023-09-08T04:47:37;48722.53;;;-146.00;74.69
21102;BME280;10709;49.006;12.100;2023-09-08T04:50:04;48761.72;;;-146.00;75.00
21102;BME280;10709;49.006;12.100;2023-09-08T04:52:31;48753.88;;;-146.00;74.91
21102;BME280;10709;49.006;12.100;2023-09-08T04:54:57;48730.38;;;-146.00;75.05
21102;BME280;10709;49.006;12.100;2023-09-08T04:57:24;48746.03;;;-146.00;74.94
21102;BME280;10709;49.006;12.100;2023-09-08T04:59:52;48742.13;;;-146.00;74.97
21102;BME280;10709;49.006;12.100;2023-09-08T05:02:19;48730.38;;;-146.00;75.06
21102;BME280;10709;49.006;12.100;2023-09-08T05:04:46;48716.66;;;-146.00;75.33
21102;BME280;10709;49.006;12.100;2023-09-08T05:07:13;48738.19;;;-146.00;75.51
21102;BME280;10709;49.006;12.100;2023-09-08T05:09:40;48742.13;;;-146.00;75.58
21102;BME280;10709;49.006;12.100;2023-09-08T05:12:07;48712.72;;;-146.00;76.09
21102;BME280;10709;49.006;12.100;2023-09-08T05:14:34;48718.59;;;-146.00;75.98
21102;BME280;10709;49.006;12.100;2023-09-08T05:17:01;48753.88;;;-146.00;76.29
21102;BME280;10709;49.006;12.100;2023-09-08T05:19:27;48714.69;;;-146.00;76.63
21102;BME280;10709;49.006;12.100;2023-09-08T05:21:56;48730.38;;;-146.00;76.65
21102;BME280;10709;49.006;12.100;2023-09-08T05:24:24;48714.69;;;-146.00;76.59
21102;BME280;10709;49.006;12.100;2023-09-08T05:26:52;48740.16;;;-146.00;76.83
21102;BME280;10709;49.006;12.100;2023-09-08T05:29:19;48742.13;;;-146.00;76.66
21102;BME280;10709;49.006;12.100;2023-09-08T05:31:46;48746.03;;;-146.00;76.74
21102;BME280;10709;49.006;12.100;2023-09-08T05:34:12;48746.03;;;-146.00;76.75
21102;BME280;10709;49.006;12.100;2023-09-08T05:36:39;48759.75;;;-146.00;77.03
21102;BME280;10709;49.006;12.100;2023-09-08T05:39:07;48742.13;;;-146.00;76.83
21102;BME280;10709;49.006;12.100;2023-09-08T05:41:34;48732.31;;;-146.00;76.99
21102;BME280;10709;49.006;12.100;2023-09-08T05:44:00;48753.88;;;-146.00;77.08
21102;BME280;10709;49.006;12.100;2023-09-08T05:46:29;48736.25;;;-146.00;77.29
21102;BME280;10709;49.006;12.100;2023-09-08T05:48:57;48742.13;;;-146.00;78.05
21102;BME280;10709;49.006;12.100;2023-09-08T05:51:24;48765.63;;;-146.00;78.18
21102;BME280;10709;49.006;12.100;2023-09-08T05:53:51;48773.47;;;-146.00;78.57
21102;BME280;10709;49.006;12.100;2023-09-08T05:56:19;48767.59;;;-146.00;79.06
21102;BME280;10709;49.006;12.100;2023-09-08T05:58:46;48761.72;;;-146.00;79.01
21102;BME280;10709;49.006;12.100;2023-09-08T06:01:14;48769.53;;;-146.00;78.97
21102;BME280;10709;49.006;12.100;2023-09-08T06:03:41;48763.66;;;-146.00;79.41
21102;BME280;10709;49.006;12.100;2023-09-08T06:06:07;48800.88;;;-146.00;78.53
21102;BME280;10709;49.006;12.100;2023-09-08T06:08:34;48775.41;;;-146.00;78.62
21102;BME280;10709;49.006;12.100;2023-09-08T06:11:01;48730.38;;;-146.00;78.84
21102;BME280;10709;49.006;12.100;2023-09-08T06:13:27;48769.53;;;-146.00;78.49
21102;BME280;10709;49.006;12.100;2023-09-08T06:15:54;48767.59;;;-146.00;78.10
21102;BME280;10709;49.006;12.100;2023-09-08T06:18:21;48781.31;;;-146.00;77.66
21102;BME280;10709;49.006;12.100;2023-09-08T06:20:52;48796.97;;;-146.00;77.48
21102;BME280;10709;49.006;12.100;2023-09-08T06:23:20;48781.31;;;-146.00;76.88
21102;BME280;10709;49.006;12.100;2023-09-08T06:25:49;48746.03;;;-146.00;76.86
21102;BME280;10709;49.006;12.100;2023-09-08T06:28:16;48773.47;;;-146.00;77.09
21102;BME280;10709;49.006;12.100;2023-09-08T06:30:42;48773.47;;;-146.00;75.43
21102;BME280;10709;49.006;12.100;2023-09-08T06:33:09;48763.66;;;-146.00;76.02
21102;BME280;10709;49.006;12.100;2023-09-08T06:35:35;48759.75;;;-146.00;75.87
21102;BME280;10709;49.006;12.100;2023-09-08T06:38:02;48757.78;;;-146.00;74.66
21102;BME280;10709;49.006;12.100;2023-09-08T06:40:29;48757.78;;;-146.00;74.73
21102;BME280;10709;49.006;12.100;2023-09-08T06:42:56;48753.88;;;-146.00;75.94
21102;BME280;10709;49.006;12.100;2023-09-08T06:45:26;48769.53;;;-146.00;75.13
21102;BME280;10709;49.006;12.100;2023-09-08T06:47:53;48740.16;;;-146.00;75.57
21102;BME280;10709;49.006;12.100;2023-09-08T06:50:22;48738.19;;;-146.00;74.34
21102;BME280;10709;49.006;12.100;2023-09-08T06:52:49;48738.19;;;-146.00;73.55
21102;BME280;10709;49.006;12.100;2023-09-08T06:55:18;48787.19;;;-146.00;73.17
21102;BME280;10709;49.006;12.100;2023-09-08T06:57:44;48753.88;;;-146.00;73.77
21102;BME280;10709;49.006;12.100;2023-09-08T07:00:12;48761.72;;;-146.00;73.70
21102;BME280;10709;49.006;12.100;2023-09-08T07:02:40;48771.50;;;-146.00;73.64
21102;BME280;10709;49.006;12.100;2023-09-08T07:05:09;48761.72;;;-146.00;74.31
21102;BME280;10709;49.006;12.100;2023-09-08T07:07:37;48753.88;;;-146.00;74.50
21102;BME280;10709;49.006;12.100;2023-09-08T07:10:05;48775.41;;;-146.00;74.39
21102;BME280;10709;49.006;12.100;2023-09-08T07:12:32;48763.66;;;-146.00;74.31
21102;BME280;10709;49.006;12.100;2023-09-08T07:15:02;48769.53;;;-146.00;74.58
21102;BME280;10709;49.006;12.100;2023-09-08T07:17:28;48769.53;;;-146.00;75.25
21102;BME280;10709;49.006;12.100;2023-09-08T07:19:55;48781.31;;;-146.00;75.95
21102;BME280;10709;49.006;12.100;2023-09-08T07:22:22;48753.88;;;-146.00;74.97
21102;BME280;10709;49.006;12.100;2023-09-08T07:24:48;48789.13;;;-146.00;75.25
21102;BME280;10709;49.006;12.100;2023-09-08T07:27:15;48787.19;;;-146.00;74.71
21102;BME280;10709;49.006;12.100;2023-09-08T07:29:41;48775.41;;;-146.00;73.86
21102;BME280;10709;49.006;12.100;2023-09-08T07:32:08;48806.75;;;-146.00;74.25
21102;BME280;10709;49.006;12.100;2023-09-08T07:34:35;48769.53;;;-146.00;73.56
21102;BME280;10709;49.006;12.100;2023-09-08T07:37:01;48740.16;;;-146.00;73.22
21102;BME280;10709;49.006;12.100;2023-09-08T07:39:28;48773.47;;;-146.00;73.13
21102;BME280;10709;49.006;12.100;2023-09-08T07:41:54;48779.34;;;-146.00;73.00
21102;BME280;10709;49.006;12.100;2023-09-08T07:44:25;48773.47;;;-146.00;73.03
21102;BME280;10709;49.006;12.100;2023-09-08T07:46:52;48753.88;;;-146.00;73.04
21102;BME280;10709;49.006;12.100;2023-09-08T07:49:21;48773.47;;;-146.00;73.20
21102;BME280;10709;49.006;12.100;2023-09-08T07:51:48;48781.31;;;-146.00;70.33
21102;BME280;10709;49.006;12.100;2023-09-08T07:54:14;48785.22;;;-146.00;69.19
21102;BME280;10709;49.006;12.100;2023-09-08T07:56:41;48783.25;;;-146.00;69.49
21102;BME280;10709;49.006;12.100;2023-09-08T07:59:08;48785.22;;;-146.00;67.95
21102;BME280;10709;49.006;12.100;2023-09-08T08:01:34;48746.03;;;-146.00;67.71
21102;BME280;10709;49.006;12.100;2023-09-08T08:04:01;48769.53;;;-146.00;67.53
21102;BME280;10709;49.006;12.100;2023-09-08T08:06:30;48767.59;;;-146.00;67.06
21102;BME280;10709;49.006;12.100;2023-09-08T08:09:00;48771.50;;;-146.00;66.49
21102;BME280;10709;49.006;12.100;2023-09-08T08:11:28;48777.38;;;-146.00;66.18
21102;BME280;10709;49.006;12.100;2023-09-08T08:13:55;48746.03;;;-146.00;66.22
21102;BME280;10709;49.006;12.100;2023-09-08T08:16:23;48773.47;;;-146.00;65.87
21102;BME280;10709;49.006;12.100;2023-09-08T08:18:51;48787.19;;;-146.00;64.04
21102;BME280;10709;49.006;12.100;2023-09-08T08:21:17;48738.19;;;-146.00;63.43
21102;BME280;10709;49.006;12.100;2023-09-08T08:23:45;48781.31;;;-146.00;63.77
21102;BME280;10709;49.006;12.100;2023-09-08T08:26:12;48765.63;;;-146.00;62.22
21102;BME280;10709;49.006;12.100;2023-09-08T08:28:38;48773.47;;;-146.00;63.73
21102;BME280;10709;49.006;12.100;2023-09-08T08:31:06;48753.88;;;-146.00;64.21
21102;BME280;10709;49.006;12.100;2023-09-08T08:33:32;48773.47;;;-146.00;61.77
21102;BME280;10709;49.006;12.100;2023-09-08T08:35:59;48765.63;;;-146.00;60.75
21102;BME280;10709;49.006;12.100;2023-09-08T08:38:26;48738.19;;;-146.00;60.12
21102;BME280;10709;49.006;12.100;2023-09-08T08:40:53;48787.19;;;-146.00;61.05
21102;BME280;10709;49.006;12.100;2023-09-08T08:43:21;48798.94;;;-146.00;61.55
21102;BME280;10709;49.006;12.100;2023-09-08T08:45:50;48775.41;;;-146.00;60.83
21102;BME280;10709;49.006;12.100;2023-09-08T08:48:18;48765.63;;;-146.00;60.46
21102;BME280;10709;49.006;12.100;2023-09-08T08:50:47;48791.09;;;-146.00;58.73
21102;BME280;10709;49.006;12.100;2023-09-08T08:53:15;48769.53;;;-146.00;58.86
21102;BME280;10709;49.006;12.100;2023-09-08T08:55:43;48779.34;;;-146.00;58.04
21102;BME280;10709;49.006;12.100;2023-09-08T08:58:11;48734.28;;;-146.00;56.16
21102;BME280;10709;49.006;12.100;2023-09-08T09:00:40;48757.78;;;-146.00;56.31
21102;BME280;10709;49.006;12.100;2023-09-08T09:03:07;48761.72;;;-146.00;57.50
21102;BME280;10709;49.006;12.100;2023-09-08T09:05:42;48765.63;;;-146.00;55.90
21102;BME280;10709;49.006;12.100;2023-09-08T09:08:16;48812.63;;;-146.00;56.25
21102;BME280;10709;49.006;12.100;2023-09-08T09:10:44;48791.09;;;-146.00;55.68
21102;BME280;10709;49.006;12.100;2023-09-08T09:13:11;48761.72;;;-146.00;55.21
21102;BME280;10709;49.006;12.100;2023-09-08T09:15:37;48773.47;;;-146.00;54.47
21102;BME280;10709;49.006;12.100;2023-09-08T09:18:05;48767.59;;;-146.00;54.60
21102;BME280;10709;49.006;12.100;2023-09-08T09:20:32;48800.88;;;-146.00;53.76
21102;BME280;10709;49.006;12.100;2023-09-08T09:22:59;48746.03;;;-146.00;53.34
21102;BME280;10709;49.006;12.100;2023-09-08T09:25:27;48753.88;;;-146.00;54.23
21102;BME280;10709;49.006;12.100;2023-09-08T09:27:57;48765.63;;;-146.00;54.37
21102;BME280;10709;49.006;12.100;2023-09-08T09:30:25;48779.34;;;-146.00;54.14
21102;BME280;10709;49.006;12.100;2023-09-08T09:33:00;48757.78;;;-146.00;54.93
21102;BME280;10709;49.006;12.100;2023-09-08T09:35:47;48820.47;;;-146.00;55.77
21102;BME280;10709;49.006;12.100;2023-09-08T09:38:14;48781.31;;;-146.00;54.41
21102;BME280;10709;49.006;12.100;2023-09-08T09:40:40;48777.38;;;-146.00;54.51
21102;BME280;10709;49.006;12.100;2023-09-08T09:43:08;48800.88;;;-146.00;53.42
21102;BME280;10709;49.006;12.100;2023-09-08T09:45:35;48781.31;;;-146.00;54.54
21102;BME280;10709;49.006;12.100;2023-09-08T09:48:06;48781.31;;;-146.00;53.04
21102;BME280;10709;49.006;12.100;2023-09-08T09:50:37;48781.31;;;-146.00;52.96
21102;BME280;10709;49.006;12.100;2023-09-08T09:53:13;48781.31;;;-146.00;53.63
21102;BME280;10709;49.006;12.100;2023-09-08T09:55:42;48765.63;;;-146.00;53.53
21102;BME280;10709;49.006;12.100;2023-09-08T09:58:09;48785.22;;;-146.00;53.13
21102;BME280;10709;49.006;12.100;2023-09-08T10:00:39;48804.81;;;-146.00;53.70
21102;BME280;10709;49.006;12.100;2023-09-08T10:03:13;48769.53;;;-146.00;53.05
21102;BME280;10709;49.006;12.100;2023-09-08T10:05:40;48773.47;;;-146.00;53.44
21102;BME280;10709;49.006;12.100;2023-09-08T10:08:07;48777.38;;;-146.00;54.22
21102;BME280;10709;49.006;12.100;2023-09-08T10:10:33;48781.31;;;-146.00;54.03
21102;BME280;10709;49.006;12.100;2023-09-08T10:13:02;48759.75;;;-146.00;54.08
21102;BME280;10709;49.006;12.100;2023-09-08T10:15:32;48761.72;;;-146.00;54.88
21102;BME280;10709;49.006;12.100;2023-09-08T10:17:59;48769.53;;;-146.00;54.85
21102;BME280;10709;49.006;12.100;2023-09-08T10:20:27;48781.31;;;-146.00;54.02
21102;BME280;10709;49.006;12.100;2023-09-08T10:23:12;48785.22;;;-146.00;53.46
21102;BME280;10709;49.006;12.100;2023-09-08T10:25:43;48798.94;;;-146.00;54.12
21102;BME280;10709;49.006;12.100;2023-09-08T10:28:16;48785.22;;;-146.00;54.12
21102;BME280;10709;49.006;12.100;2023-09-08T10:30:43;48793.06;;;-146.00;54.02
21102;BME280;10709;49.006;12.100;2023-09-08T10:33:11;48820.47;;;-146.00;54.05
21102;BME280;10709;49.006;12.100;2023-09-08T10:35:39;48812.63;;;-146.00;54.32
21102;BME280;10709;49.006;12.100;2023-09-08T10:38:27;48787.19;;;-146.00;53.28
21102;BME280;10709;49.006;12.100;2023-09-08T10:46:44;48775.41;;;-146.00;53.34
21102;BME280;10709;49.006;12.100;2023-09-08T10:49:12;48808.72;;;-146.00;53.31
21102;BME280;10709;49.006;12.100;2023-09-08T10:51:39;48793.06;;;-146.00;52.00
21102;BME280;10709;49.006;12.100;2023-09-08T10:54:06;48771.50;;;-146.00;52.65
21102;BME280;10709;49.006;12.100;2023-09-08T10:56:53;48795.00;;;-146.00;52.13
21102;BME280;10709;49.006;12.100;2023-09-08T10:59:34;48789.13;;;-146.00;50.04
21102;BME280;10709;49.006;12.100;2023-09-08T11:02:04;48771.50;;;-146.00;52.48
21102;BME280;10709;49.006;12.100;2023-09-08T11:04:31;48796.97;;;-146.00;51.73
21102;BME280;10709;49.006;12.100;2023-09-08T11:06:58;48812.63;;;-146.00;50.65
21102;BME280;10709;49.006;12.100;2023-09-08T11:09:25;48796.97;;;-146.00;49.29
21102;BME280;10709;49.006;12.100;2023-09-08T11:11:51;48789.13;;;-146.00;48.43
21102;BME280;10709;49.006;12.100;2023-09-08T11:14:18;48822.44;;;-146.00;49.91
21102;BME280;10709;49.006;12.100;2023-09-08T11:16:45;48781.31;;;-146.00;50.60
21102;BME280;10709;49.006;12.100;2023-09-08T11:19:13;48836.16;;;-146.00;48.25
21102;BME280;10709;49.006;12.100;2023-09-08T11:21:40;48802.84;;;-146.00;48.10
21102;BME280;10709;49.006;12.100;2023-09-08T11:24:08;48832.22;;;-146.00;50.20
21102;BME280;10709;49.006;12.100;2023-09-08T11:26:36;48804.81;;;-146.00;49.69
21102;BME280;10709;49.006;12.100;2023-09-08T11:29:04;48824.41;;;-146.00;49.06
21102;BME280;10709;49.006;12.100;2023-09-08T11:31:31;48824.41;;;-146.00;47.89
21102;BME280;10709;49.006;12.100;2023-09-08T11:33:58;48800.88;;;-146.00;47.83
21102;BME280;10709;49.006;12.100;2023-09-08T11:36:26;48793.06;;;-146.00;47.96
21102;BME280;10709;49.006;12.100;2023-09-08T11:38:54;48812.63;;;-146.00;47.41
21102;BME280;10709;49.006;12.100;2023-09-08T11:41:21;48793.06;;;-146.00;48.47
21102;BME280;10709;49.006;12.100;2023-09-08T11:43:50;48812.63;;;-146.00;47.33
21102;BME280;10709;49.006;12.100;2023-09-08T11:46:17;48824.41;;;-146.00;47.85
21102;BME280;10709;49.006;12.100;2023-09-08T11:48:44;48796.97;;;-146.00;47.29
21102;BME280;10709;49.006;12.100;2023-09-08T11:51:11;48802.84;;;-146.00;46.68
21102;BME280;10709;49.006;12.100;2023-09-08T11:53:38;48810.69;;;-146.00;47.54
21102;BME280;10709;49.006;12.100;2023-09-08T11:56:04;48820.47;;;-146.00;47.92
21102;BME280;10709;49.006;12.100;2023-09-08T11:58:31;48808.72;;;-146.00;47.52
21102;BME280;10709;49.006;12.100;2023-09-08T12:00:58;48808.72;;;-146.00;47.80
21102;BME280;10709;49.006;12.100;2023-09-08T12:03:27;48795.00;;;-146.00;47.85
21102;BME280;10709;49.006;12.100;2023-09-08T12:05:54;48775.41;;;-146.00;47.85
21102;BME280;10709;49.006;12.100;2023-09-08T12:08:24;48812.63;;;-146.00;47.47
21102;BME280;10709;49.006;12.100;2023-09-08T12:10:53;48842.03;;;-146.00;47.01
21102;BME280;10709;49.006;12.100;2023-09-08T12:13:21;48828.31;;;-146.00;47.93
21102;BME280;10709;49.006;12.100;2023-09-08T12:15:48;48781.31;;;-146.00;47.67
21102;BME280;10709;49.006;12.100;2023-09-08T12:18:15;48812.63;;;-146.00;47.32
21102;BME280;10709;49.006;12.100;2023-09-08T12:20:44;48812.63;;;-146.00;47.20
21102;BME280;10709;49.006;12.100;2023-09-08T12:23:18;48793.06;;;-146.00;47.78
21102;BME280;10709;49.006;12.100;2023-09-08T12:25:46;48830.28;;;-146.00;48.28
21102;BME280;10709;49.006;12.100;2023-09-08T12:28:15;48836.16;;;-146.00;48.02
21102;BME280;10709;49.006;12.100;2023-09-08T12:30:42;48840.06;;;-146.00;48.78
21102;BME280;10709;49.006;12.100;2023-09-08T12:33:09;48840.06;;;-146.00;48.19
21102;BME280;10709;49.006;12.100;2023-09-08T12:35:37;48834.19;;;-146.00;48.43
21102;BME280;10709;49.006;12.100;2023-09-08T12:38:05;48804.81;;;-146.00;48.65
21102;BME280;10709;49.006;12.100;2023-09-08T12:40:37;48836.16;;;-146.00;48.57